sensor_id;sensor_type;location;lat;lon;timestamp;P1;durP1;ratioP1;P2;durP2;ratioP2
41677;SDS011;27364;49.026;8.712;2023-01-01T00:01:27;27.27;;;20.17;;
41677;SDS011;27364;49.026;8.712;2023-01-01T00:03:54;25.75;;;19.98;;
41677;SDS011;27364;49.026;8.712;2023-01-01T00:06:21;30.70;;;20.57;;
41677;SDS011;27364;49.026;8.712;2023-01-01T00:08:47;32.22;;;23.38;;
41677;SDS011;27364;49.026;8.712;2023-01-01T00:11:13;33.88;;;25.48;;
41677;SDS011;27364;49.026;8.712;2023-01-01T00:13:40;37.38;;;27.60;;
41677;SDS011;27364;49.026;8.712;2023-01-01T00:16:07;43.67;;;30.30;;
41677;SDS011;27364;49.026;8.712;2023-01-01T00:18:35;37.00;;;28.38;;
41677;SDS011;27364;49.026;8.712;2023-01-01T00:21:04;38.08;;;27.27;;
41677;SDS011;27364;49.026;8.712;2023-01-01T00:23:31;33.22;;;25.75;;
41677;SDS011;27364;49.026;8.712;2023-01-01T00:25:58;33.38;;;27.42;;
41677;SDS011;27364;49.026;8.712;2023-01-01T00:28:24;40.30;;;28.90;;
41677;SDS011;27364;49.026;8.712;2023-01-01T00:30:49;37.03;;;28.80;;
41677;SDS011;27364;49.026;8.712;2023-01-01T00:33:15;48.10;;;40.35;;
41677;SDS011;27364;49.026;8.712;2023-01-01T00:35:40;61.65;;;54.17;;
41677;SDS011;27364;49.026;8.712;2023-01-01T00:38:06;38.58;;;31.75;;
41677;SDS011;27364;49.026;8.712;2023-01-01T00:40:32;38.92;;;31.10;;
41677;SDS011;27364;49.026;8.712;2023-01-01T00:42:57;35.80;;;27.63;;
41677;SDS011;27364;49.026;8.712;2023-01-01T00:45:23;32.13;;;25.50;;
41677;SDS011;27364;49.026;8.712;2023-01-01T00:47:49;31.10;;;25.98;;
41677;SDS011;27364;49.026;8.712;2023-01-01T00:50:16;37.13;;;29.48;;
41677;SDS011;27364;49.026;8.712;2023-01-01T00:52:42;46.95;;;39.97;;
41677;SDS011;27364;49.026;8.712;2023-01-01T00:55:08;39.20;;;33.70;;
41677;SDS011;27364;49.026;8.712;2023-01-01T00:57:34;38.28;;;29.35;;
41677;SDS011;27364;49.026;8.712;2023-01-01T00:59:59;31.48;;;26.10;;
41677;SDS011;27364;49.026;8.712;2023-01-01T01:02:25;34.47;;;27.75;;
41677;SDS011;27364;49.026;8.712;2023-01-01T01:04:50;36.08;;;28.23;;
41677;SDS011;27364;49.026;8.712;2023-01-01T01:07:16;33.55;;;25.60;;
41677;SDS011;27364;49.026;8.712;2023-01-01T01:09:41;42.97;;;37.42;;
41677;SDS011;27364;49.026;8.712;2023-01-01T01:12:07;55.58;;;47.40;;
41677;SDS011;27364;49.026;8.712;2023-01-01T01:14:32;33.78;;;29.80;;
41677;SDS011;27364;49.026;8.712;2023-01-01T01:16:57;54.00;;;46.05;;
41677;SDS011;27364;49.026;8.712;2023-01-01T01:19:23;28.83;;;24.30;;
41677;SDS011;27364;49.026;8.712;2023-01-01T01:21:50;21.25;;;16.92;;
41677;SDS011;27364;49.026;8.712;2023-01-01T01:24:16;21.70;;;18.00;;
41677;SDS011;27364;49.026;8.712;2023-01-01T01:26:42;53.53;;;47.78;;
41677;SDS011;27364;49.026;8.712;2023-01-01T01:29:07;49.70;;;42.15;;
41677;SDS011;27364;49.026;8.712;2023-01-01T01:31:33;44.20;;;36.83;;
41677;SDS011;27364;49.026;8.712;2023-01-01T01:33:59;45.53;;;38.60;;
41677;SDS011;27364;49.026;8.712;2023-01-01T01:36:25;32.88;;;26.10;;
41677;SDS011;27364;49.026;8.712;2023-01-01T01:38:52;38.13;;;32.75;;
41677;SDS011;27364;49.026;8.712;2023-01-01T01:41:20;40.00;;;32.72;;
41677;SDS011;27364;49.026;8.712;2023-01-01T01:46:21;35.65;;;30.80;;
41677;SDS011;27364;49.026;8.712;2023-01-01T01:48:54;39.35;;;35.08;;
41677;SDS011;27364;49.026;8.712;2023-01-01T01:51:25;38.65;;;34.10;;
41677;SDS011;27364;49.026;8.712;2023-01-01T01:53:55;47.17;;;34.95;;
41677;SDS011;27364;49.026;8.712;2023-01-01T01:56:27;34.58;;;29.42;;
41677;SDS011;27364;49.026;8.712;2023-01-01T01:58:59;35.50;;;30.92;;
41677;SDS011;27364;49.026;8.712;2023-01-01T02:01:25;32.40;;;27.08;;
41677;SDS011;27364;49.026;8.712;2023-01-01T02:03:54;33.13;;;28.08;;
41677;SDS011;27364;49.026;8.712;2023-01-01T02:06:23;30.60;;;25.40;;
41677;SDS011;27364;49.026;8.712;2023-01-01T02:08:50;29.23;;;22.63;;
41677;SDS011;27364;49.026;8.712;2023-01-01T02:11:16;25.90;;;21.58;;
41677;SDS011;27364;49.026;8.712;2023-01-01T02:13:41;25.02;;;20.77;;
41677;SDS011;27364;49.026;8.712;2023-01-01T02:18:50;26.90;;;22.63;;
41677;SDS011;27364;49.026;8.712;2023-01-01T02:21:27;28.77;;;24.63;;
41677;SDS011;27364;49.026;8.712;2023-01-01T02:29:59;23.58;;;17.83;;
41677;SDS011;27364;49.026;8.712;2023-01-01T02:32:32;21.58;;;18.00;;
41677;SDS011;27364;49.026;8.712;2023-01-01T02:35:04;20.33;;;16.20;;
41677;SDS011;27364;49.026;8.712;2023-01-01T02:37:54;20.50;;;15.77;;
41677;SDS011;27364;49.026;8.712;2023-01-01T02:40:23;19.85;;;15.40;;
41677;SDS011;27364;49.026;8.712;2023-01-01T02:42:51;20.63;;;15.60;;
41677;SDS011;27364;49.026;8.712;2023-01-01T02:45:18;16.83;;;14.30;;
41677;SDS011;27364;49.026;8.712;2023-01-01T02:47:45;17.67;;;14.35;;
41677;SDS011;27364;49.026;8.712;2023-01-01T02:50:15;15.88;;;12.77;;
41677;SDS011;27364;49.026;8.712;2023-01-01T02:52:51;18.15;;;14.05;;
41677;SDS011;27364;49.026;8.712;2023-01-01T02:58:41;18.83;;;13.38;;
41677;SDS011;27364;49.026;8.712;2023-01-01T03:01:36;15.82;;;12.95;;
41677;SDS011;27364;49.026;8.712;2023-01-01T03:04:06;16.05;;;12.93;;
41677;SDS011;27364;49.026;8.712;2023-01-01T03:06:38;17.00;;;13.70;;
41677;SDS011;27364;49.026;8.712;2023-01-01T03:09:21;21.35;;;14.43;;
41677;SDS011;27364;49.026;8.712;2023-01-01T03:11:59;19.23;;;13.32;;
41677;SDS011;27364;49.026;8.712;2023-01-01T03:14:39;17.95;;;13.45;;
41677;SDS011;27364;49.026;8.712;2023-01-01T03:19:53;17.60;;;14.25;;
41677;SDS011;27364;49.026;8.712;2023-01-01T03:22:20;17.05;;;13.30;;
41677;SDS011;27364;49.026;8.712;2023-01-01T03:24:59;15.80;;;12.55;;
41677;SDS011;27364;49.026;8.712;2023-01-01T03:27:32;16.33;;;11.45;;
41677;SDS011;27364;49.026;8.712;2023-01-01T03:30:03;14.52;;;10.23;;
41677;SDS011;27364;49.026;8.712;2023-01-01T03:32:54;13.38;;;10.05;;
41677;SDS011;27364;49.026;8.712;2023-01-01T03:35:36;15.50;;;10.88;;
41677;SDS011;27364;49.026;8.712;2023-01-01T03:38:11;14.02;;;10.30;;
41677;SDS011;27364;49.026;8.712;2023-01-01T03:40:43;12.05;;;9.25;;
41677;SDS011;27364;49.026;8.712;2023-01-01T03:43:13;12.15;;;8.77;;
41677;SDS011;27364;49.026;8.712;2023-01-01T03:45:43;12.80;;;9.20;;
41677;SDS011;27364;49.026;8.712;2023-01-01T03:48:11;13.73;;;7.75;;
41677;SDS011;27364;49.026;8.712;2023-01-01T03:53:35;12.82;;;8.98;;
41677;SDS011;27364;49.026;8.712;2023-01-01T03:58:55;12.13;;;8.63;;
41677;SDS011;27364;49.026;8.712;2023-01-01T04:01:40;11.07;;;8.77;;
41677;SDS011;27364;49.026;8.712;2023-01-01T04:04:09;11.63;;;7.78;;
41677;SDS011;27364;49.026;8.712;2023-01-01T04:06:35;12.00;;;7.90;;
41677;SDS011;27364;49.026;8.712;2023-01-01T04:09:00;10.45;;;7.60;;
41677;SDS011;27364;49.026;8.712;2023-01-01T04:11:29;10.23;;;6.63;;
41677;SDS011;27364;49.026;8.712;2023-01-01T04:16:54;10.30;;;6.65;;
41677;SDS011;27364;49.026;8.712;2023-01-01T04:19:23;9.85;;;6.80;;
41677;SDS011;27364;49.026;8.712;2023-01-01T04:21:49;9.88;;;7.20;;
41677;SDS011;27364;49.026;8.712;2023-01-01T04:24:15;10.35;;;7.95;;
41677;SDS011;27364;49.026;8.712;2023-01-01T04:26:41;13.75;;;11.02;;
41677;SDS011;27364;49.026;8.712;2023-01-01T04:29:07;11.70;;;9.75;;
41677;SDS011;27364;49.026;8.712;2023-01-01T04:31:33;14.70;;;10.07;;
41677;SDS011;27364;49.026;8.712;2023-01-01T04:33:59;11.80;;;10.32;;
41677;SDS011;27364;49.026;8.712;2023-01-01T04:36:25;17.48;;;10.73;;
41677;SDS011;27364;49.026;8.712;2023-01-01T04:38:50;14.57;;;11.90;;
41677;SDS011;27364;49.026;8.712;2023-01-01T04:41:16;13.98;;;11.00;;
41677;SDS011;27364;49.026;8.712;2023-01-01T04:43:45;17.75;;;13.60;;
41677;SDS011;27364;49.026;8.712;2023-01-01T04:46:13;19.52;;;13.38;;
41677;SDS011;27364;49.026;8.712;2023-01-01T04:48:39;16.80;;;13.40;;
41677;SDS011;27364;49.026;8.712;2023-01-01T04:51:04;13.85;;;10.65;;
41677;SDS011;27364;49.026;8.712;2023-01-01T04:53:31;17.08;;;12.55;;
41677;SDS011;27364;49.026;8.712;2023-01-01T04:58:37;17.13;;;13.93;;
41677;SDS011;27364;49.026;8.712;2023-01-01T05:01:03;16.33;;;13.15;;
41677;SDS011;27364;49.026;8.712;2023-01-01T05:03:30;17.13;;;14.43;;
41677;SDS011;27364;49.026;8.712;2023-01-01T05:06:00;14.98;;;13.02;;
41677;SDS011;27364;49.026;8.712;2023-01-01T05:08:33;15.85;;;13.02;;
41677;SDS011;27364;49.026;8.712;2023-01-01T05:11:04;18.15;;;13.50;;
41677;SDS011;27364;49.026;8.712;2023-01-01T05:13:35;18.08;;;13.63;;
41677;SDS011;27364;49.026;8.712;2023-01-01T05:16:04;18.52;;;14.70;;
41677;SDS011;27364;49.026;8.712;2023-01-01T05:18:32;18.50;;;13.60;;
41677;SDS011;27364;49.026;8.712;2023-01-01T05:20:59;14.80;;;12.95;;
41677;SDS011;27364;49.026;8.712;2023-01-01T05:23:26;18.25;;;13.18;;
41677;SDS011;27364;49.026;8.712;2023-01-01T05:25:52;15.48;;;12.07;;
41677;SDS011;27364;49.026;8.712;2023-01-01T05:28:18;13.27;;;10.88;;
41677;SDS011;27364;49.026;8.712;2023-01-01T05:30:43;14.85;;;11.15;;
41677;SDS011;27364;49.026;8.712;2023-01-01T05:33:08;13.18;;;10.73;;
41677;SDS011;27364;49.026;8.712;2023-01-01T05:35:34;14.00;;;10.30;;
41677;SDS011;27364;49.026;8.712;2023-01-01T05:37:59;14.00;;;10.27;;
41677;SDS011;27364;49.026;8.712;2023-01-01T05:40:25;15.52;;;10.90;;
41677;SDS011;27364;49.026;8.712;2023-01-01T05:42:50;12.38;;;10.10;;
41677;SDS011;27364;49.026;8.712;2023-01-01T05:45:16;12.52;;;10.40;;
41677;SDS011;27364;49.026;8.712;2023-01-01T05:47:42;14.43;;;11.35;;
41677;SDS011;27364;49.026;8.712;2023-01-01T05:50:08;16.15;;;11.88;;
41677;SDS011;27364;49.026;8.712;2023-01-01T05:52:33;16.33;;;12.75;;
41677;SDS011;27364;49.026;8.712;2023-01-01T05:54:59;16.65;;;12.02;;
41677;SDS011;27364;49.026;8.712;2023-01-01T05:57:26;16.02;;;11.45;;
41677;SDS011;27364;49.026;8.712;2023-01-01T05:59:52;11.52;;;9.43;;
41677;SDS011;27364;49.026;8.712;2023-01-01T06:02:18;12.18;;;10.00;;
41677;SDS011;27364;49.026;8.712;2023-01-01T06:04:43;11.75;;;8.18;;
41677;SDS011;27364;49.026;8.712;2023-01-01T06:07:09;11.27;;;7.65;;
41677;SDS011;27364;49.026;8.712;2023-01-01T06:09:34;9.23;;;6.13;;
41677;SDS011;27364;49.026;8.712;2023-01-01T06:12:00;10.00;;;6.72;;
41677;SDS011;27364;49.026;8.712;2023-01-01T06:14:25;10.65;;;7.05;;
41677;SDS011;27364;49.026;8.712;2023-01-01T06:16:51;10.40;;;7.28;;
41677;SDS011;27364;49.026;8.712;2023-01-01T06:19:16;10.43;;;7.38;;
41677;SDS011;27364;49.026;8.712;2023-01-01T06:21:41;10.23;;;6.68;;
41677;SDS011;27364;49.026;8.712;2023-01-01T06:24:07;10.98;;;7.10;;
41677;SDS011;27364;49.026;8.712;2023-01-01T06:26:33;11.40;;;7.50;;
41677;SDS011;27364;49.026;8.712;2023-01-01T06:28:59;10.13;;;7.40;;
41677;SDS011;27364;49.026;8.712;2023-01-01T06:31:26;11.23;;;7.30;;
41677;SDS011;27364;49.026;8.712;2023-01-01T06:33:52;11.10;;;7.22;;
41677;SDS011;27364;49.026;8.712;2023-01-01T06:36:19;10.18;;;7.45;;
41677;SDS011;27364;49.026;8.712;2023-01-01T06:38:46;9.35;;;7.00;;
41677;SDS011;27364;49.026;8.712;2023-01-01T06:41:14;11.50;;;6.78;;
41677;SDS011;27364;49.026;8.712;2023-01-01T06:43:45;12.02;;;7.60;;
41677;SDS011;27364;49.026;8.712;2023-01-01T06:48:43;14.20;;;8.55;;
41677;SDS011;27364;49.026;8.712;2023-01-01T06:51:13;11.73;;;7.88;;
41677;SDS011;27364;49.026;8.712;2023-01-01T06:53:41;13.57;;;8.52;;
41677;SDS011;27364;49.026;8.712;2023-01-01T06:56:07;10.20;;;6.78;;
41677;SDS011;27364;49.026;8.712;2023-01-01T06:58:33;10.15;;;7.50;;
41677;SDS011;27364;49.026;8.712;2023-01-01T07:01:09;10.90;;;7.72;;
41677;SDS011;27364;49.026;8.712;2023-01-01T07:04:01;14.15;;;8.55;;
41677;SDS011;27364;49.026;8.712;2023-01-01T07:06:29;10.95;;;7.82;;
41677;SDS011;27364;49.026;8.712;2023-01-01T07:08:55;11.18;;;7.70;;
41677;SDS011;27364;49.026;8.712;2023-01-01T07:11:21;9.40;;;6.78;;
41677;SDS011;27364;49.026;8.712;2023-01-01T07:13:47;10.82;;;6.70;;
41677;SDS011;27364;49.026;8.712;2023-01-01T07:16:12;8.88;;;6.55;;
41677;SDS011;27364;49.026;8.712;2023-01-01T07:18:38;9.82;;;6.80;;
41677;SDS011;27364;49.026;8.712;2023-01-01T07:21:05;8.55;;;6.43;;
41677;SDS011;27364;49.026;8.712;2023-01-01T07:23:44;9.63;;;6.47;;
41677;SDS011;27364;49.026;8.712;2023-01-01T07:26:10;7.63;;;4.40;;
41677;SDS011;27364;49.026;8.712;2023-01-01T07:28:35;9.20;;;6.00;;
41677;SDS011;27364;49.026;8.712;2023-01-01T07:31:01;10.90;;;5.85;;
41677;SDS011;27364;49.026;8.712;2023-01-01T07:33:26;11.13;;;6.32;;
41677;SDS011;27364;49.026;8.712;2023-01-01T07:35:51;9.32;;;6.00;;
41677;SDS011;27364;49.026;8.712;2023-01-01T07:38:17;9.95;;;6.60;;
41677;SDS011;27364;49.026;8.712;2023-01-01T07:40:43;9.85;;;6.43;;
41677;SDS011;27364;49.026;8.712;2023-01-01T07:43:08;10.98;;;6.75;;
41677;SDS011;27364;49.026;8.712;2023-01-01T07:45:36;10.05;;;6.45;;
41677;SDS011;27364;49.026;8.712;2023-01-01T07:48:01;7.97;;;5.80;;
41677;SDS011;27364;49.026;8.712;2023-01-01T07:50:28;11.07;;;6.95;;
41677;SDS011;27364;49.026;8.712;2023-01-01T07:52:55;11.05;;;7.65;;
41677;SDS011;27364;49.026;8.712;2023-01-01T07:55:21;11.68;;;7.18;;
41677;SDS011;27364;49.026;8.712;2023-01-01T07:57:47;13.00;;;7.72;;
41677;SDS011;27364;49.026;8.712;2023-01-01T08:00:14;9.98;;;6.80;;
41677;SDS011;27364;49.026;8.712;2023-01-01T08:02:44;10.07;;;6.82;;
41677;SDS011;27364;49.026;8.712;2023-01-01T08:05:09;11.27;;;7.20;;
41677;SDS011;27364;49.026;8.712;2023-01-01T08:07:35;9.00;;;6.72;;
41677;SDS011;27364;49.026;8.712;2023-01-01T08:10:01;9.05;;;6.55;;
41677;SDS011;27364;49.026;8.712;2023-01-01T08:12:27;10.02;;;6.50;;
41677;SDS011;27364;49.026;8.712;2023-01-01T08:14:52;10.52;;;6.22;;
41677;SDS011;27364;49.026;8.712;2023-01-01T08:17:18;10.90;;;6.50;;
41677;SDS011;27364;49.026;8.712;2023-01-01T08:19:43;9.50;;;6.53;;
41677;SDS011;27364;49.026;8.712;2023-01-01T08:22:10;7.57;;;6.28;;
41677;SDS011;27364;49.026;8.712;2023-01-01T08:24:36;10.32;;;7.22;;
41677;SDS011;27364;49.026;8.712;2023-01-01T08:27:01;11.38;;;7.22;;
41677;SDS011;27364;49.026;8.712;2023-01-01T08:29:27;10.45;;;7.35;;
41677;SDS011;27364;49.026;8.712;2023-01-01T08:31:52;11.45;;;7.88;;
41677;SDS011;27364;49.026;8.712;2023-01-01T08:34:18;15.30;;;8.35;;
41677;SDS011;27364;49.026;8.712;2023-01-01T08:36:43;11.73;;;8.07;;
41677;SDS011;27364;49.026;8.712;2023-01-01T08:39:09;9.52;;;7.55;;
41677;SDS011;27364;49.026;8.712;2023-01-01T08:41:35;10.05;;;7.28;;
41677;SDS011;27364;49.026;8.712;2023-01-01T08:44:01;11.55;;;8.05;;
41677;SDS011;27364;49.026;8.712;2023-01-01T08:46:27;10.73;;;7.65;;
41677;SDS011;27364;49.026;8.712;2023-01-01T08:48:52;11.30;;;7.70;;
41677;SDS011;27364;49.026;8.712;2023-01-01T08:51:18;16.38;;;9.10;;
41677;SDS011;27364;49.026;8.712;2023-01-01T08:53:43;14.38;;;9.10;;
41677;SDS011;27364;49.026;8.712;2023-01-01T08:56:10;14.77;;;9.48;;
41677;SDS011;27364;49.026;8.712;2023-01-01T08:58:37;10.93;;;7.40;;
41677;SDS011;27364;49.026;8.712;2023-01-01T09:01:04;11.13;;;6.72;;
41677;SDS011;27364;49.026;8.712;2023-01-01T09:03:30;10.23;;;7.13;;
41677;SDS011;27364;49.026;8.712;2023-01-01T09:05:57;8.77;;;6.82;;
41677;SDS011;27364;49.026;8.712;2023-01-01T09:08:22;8.82;;;5.95;;
41677;SDS011;27364;49.026;8.712;2023-01-01T09:10:49;12.63;;;8.38;;
41677;SDS011;27364;49.026;8.712;2023-01-01T09:13:15;10.00;;;7.90;;
41677;SDS011;27364;49.026;8.712;2023-01-01T09:15:42;13.63;;;9.15;;
41677;SDS011;27364;49.026;8.712;2023-01-01T09:18:08;10.60;;;9.00;;
41677;SDS011;27364;49.026;8.712;2023-01-01T09:20:34;12.77;;;8.88;;
41677;SDS011;27364;49.026;8.712;2023-01-01T09:23:00;10.40;;;8.23;;
41677;SDS011;27364;49.026;8.712;2023-01-01T09:25:26;11.68;;;8.32;;
41677;SDS011;27364;49.026;8.712;2023-01-01T09:28:05;10.70;;;7.97;;
41677;SDS011;27364;49.026;8.712;2023-01-01T09:30:32;9.35;;;6.97;;
41677;SDS011;27364;49.026;8.712;2023-01-01T09:32:58;11.68;;;7.30;;
41677;SDS011;27364;49.026;8.712;2023-01-01T09:35:25;10.18;;;6.40;;
41677;SDS011;27364;49.026;8.712;2023-01-01T09:37:50;9.85;;;5.80;;
41677;SDS011;27364;49.026;8.712;2023-01-01T09:42:59;9.80;;;6.05;;
41677;SDS011;27364;49.026;8.712;2023-01-01T09:45:54;9.07;;;5.20;;
41677;SDS011;27364;49.026;8.712;2023-01-01T09:48:22;9.23;;;5.55;;
41677;SDS011;27364;49.026;8.712;2023-01-01T09:50:50;11.75;;;6.70;;
41677;SDS011;27364;49.026;8.712;2023-01-01T09:53:17;10.82;;;6.47;;
41677;SDS011;27364;49.026;8.712;2023-01-01T09:55:57;11.23;;;6.50;;
41677;SDS011;27364;49.026;8.712;2023-01-01T09:58:34;11.35;;;6.10;;
41677;SDS011;27364;49.026;8.712;2023-01-01T10:04:07;9.27;;;5.43;;
41677;SDS011;27364;49.026;8.712;2023-01-01T10:07:11;35.72;;;22.10;;
41677;SDS011;27364;49.026;8.712;2023-01-01T10:12:55;16.17;;;6.38;;
41677;SDS011;27364;49.026;8.712;2023-01-01T10:15:35;9.45;;;4.85;;
41677;SDS011;27364;49.026;8.712;2023-01-01T10:18:05;8.90;;;4.65;;
41677;SDS011;27364;49.026;8.712;2023-01-01T10:20:41;10.48;;;6.05;;
41677;SDS011;27364;49.026;8.712;2023-01-01T10:23:19;9.60;;;4.13;;
41677;SDS011;27364;49.026;8.712;2023-01-01T10:25:48;8.10;;;3.42;;
41677;SDS011;27364;49.026;8.712;2023-01-01T10:28:18;6.80;;;2.83;;
41677;SDS011;27364;49.026;8.712;2023-01-01T10:31:14;9.13;;;3.03;;
41677;SDS011;27364;49.026;8.712;2023-01-01T10:33:41;8.63;;;2.80;;
41677;SDS011;27364;49.026;8.712;2023-01-01T10:36:09;9.47;;;3.10;;
41677;SDS011;27364;49.026;8.712;2023-01-01T10:38:38;8.13;;;2.40;;
41677;SDS011;27364;49.026;8.712;2023-01-01T10:41:08;8.13;;;2.80;;
41677;SDS011;27364;49.026;8.712;2023-01-01T10:43:36;7.65;;;2.80;;
41677;SDS011;27364;49.026;8.712;2023-01-01T10:46:02;13.15;;;3.03;;
41677;SDS011;27364;49.026;8.712;2023-01-01T10:48:29;10.25;;;2.65;;
41677;SDS011;27364;49.026;8.712;2023-01-01T10:51:03;11.77;;;3.35;;
41677;SDS011;27364;49.026;8.712;2023-01-01T10:58:43;10.10;;;3.05;;
41677;SDS011;27364;49.026;8.712;2023-01-01T11:03:52;9.50;;;3.33;;
41677;SDS011;27364;49.026;8.712;2023-01-01T11:06:26;13.18;;;2.70;;
41677;SDS011;27364;49.026;8.712;2023-01-01T11:08:57;9.88;;;2.92;;
41677;SDS011;27364;49.026;8.712;2023-01-01T11:11:28;7.93;;;2.50;;
41677;SDS011;27364;49.026;8.712;2023-01-01T11:13:57;13.40;;;2.80;;
41677;SDS011;27364;49.026;8.712;2023-01-01T11:16:26;7.93;;;2.50;;
41677;SDS011;27364;49.026;8.712;2023-01-01T11:18:58;8.07;;;2.78;;
41677;SDS011;27364;49.026;8.712;2023-01-01T11:21:29;11.90;;;2.67;;
41677;SDS011;27364;49.026;8.712;2023-01-01T11:24:09;7.82;;;2.70;;
41677;SDS011;27364;49.026;8.712;2023-01-01T11:26:49;8.23;;;2.70;;
41677;SDS011;27364;49.026;8.712;2023-01-01T11:29:22;11.57;;;3.05;;
41677;SDS011;27364;49.026;8.712;2023-01-01T11:31:52;9.95;;;2.88;;
41677;SDS011;27364;49.026;8.712;2023-01-01T11:34:29;8.02;;;2.65;;
41677;SDS011;27364;49.026;8.712;2023-01-01T11:37:09;9.25;;;2.67;;
41677;SDS011;27364;49.026;8.712;2023-01-01T11:39:41;8.63;;;2.65;;
41677;SDS011;27364;49.026;8.712;2023-01-01T11:42:15;10.93;;;3.35;;
41677;SDS011;27364;49.026;8.712;2023-01-01T11:44:53;8.00;;;2.70;;
41677;SDS011;27364;49.026;8.712;2023-01-01T11:47:28;7.95;;;2.70;;
41677;SDS011;27364;49.026;8.712;2023-01-01T11:52:39;7.18;;;2.50;;
41677;SDS011;27364;49.026;8.712;2023-01-01T11:58:02;9.65;;;2.90;;
41677;SDS011;27364;49.026;8.712;2023-01-01T12:00:37;10.48;;;2.53;;
41677;SDS011;27364;49.026;8.712;2023-01-01T12:03:08;8.75;;;2.95;;
41677;SDS011;27364;49.026;8.712;2023-01-01T12:05:51;7.10;;;2.40;;
41677;SDS011;27364;49.026;8.712;2023-01-01T12:08:40;9.00;;;2.58;;
41677;SDS011;27364;49.026;8.712;2023-01-01T12:17:19;7.22;;;2.40;;
41677;SDS011;27364;49.026;8.712;2023-01-01T12:22:36;12.48;;;2.92;;
41677;SDS011;27364;49.026;8.712;2023-01-01T12:25:02;11.50;;;2.75;;
41677;SDS011;27364;49.026;8.712;2023-01-01T12:33:08;10.95;;;3.35;;
41677;SDS011;27364;49.026;8.712;2023-01-01T12:35:49;8.27;;;2.70;;
41677;SDS011;27364;49.026;8.712;2023-01-01T12:44:18;7.05;;;2.45;;
41677;SDS011;27364;49.026;8.712;2023-01-01T12:51:49;7.03;;;2.50;;
41677;SDS011;27364;49.026;8.712;2023-01-01T12:54:31;13.43;;;2.92;;
41677;SDS011;27364;49.026;8.712;2023-01-01T12:59:43;8.48;;;2.55;;
41677;SDS011;27364;49.026;8.712;2023-01-01T13:02:13;12.27;;;2.90;;
41677;SDS011;27364;49.026;8.712;2023-01-01T13:04:46;10.80;;;3.15;;
41677;SDS011;27364;49.026;8.712;2023-01-01T13:07:17;7.32;;;2.30;;
41677;SDS011;27364;49.026;8.712;2023-01-01T13:09:55;10.02;;;2.70;;
41677;SDS011;27364;49.026;8.712;2023-01-01T13:12:27;8.57;;;2.50;;
41677;SDS011;27364;49.026;8.712;2023-01-01T13:14:54;7.63;;;2.58;;
41677;SDS011;27364;49.026;8.712;2023-01-01T13:17:23;8.88;;;2.60;;
41677;SDS011;27364;49.026;8.712;2023-01-01T13:19:56;9.85;;;2.90;;
41677;SDS011;27364;49.026;8.712;2023-01-01T13:28:00;9.02;;;2.90;;
41677;SDS011;27364;49.026;8.712;2023-01-01T13:38:45;8.13;;;2.40;;
41677;SDS011;27364;49.026;8.712;2023-01-01T13:46:34;12.95;;;3.30;;
41677;SDS011;27364;49.026;8.712;2023-01-01T14:00:22;7.32;;;2.70;;
41677;SDS011;27364;49.026;8.712;2023-01-01T14:03:00;8.13;;;2.67;;
41677;SDS011;27364;49.026;8.712;2023-01-01T14:08:03;10.38;;;2.70;;
41677;SDS011;27364;49.026;8.712;2023-01-01T14:15:31;14.23;;;6.10;;
41677;SDS011;27364;49.026;8.712;2023-01-01T14:17:58;14.10;;;5.70;;
41677;SDS011;27364;49.026;8.712;2023-01-01T14:20:30;13.80;;;4.35;;
41677;SDS011;27364;49.026;8.712;2023-01-01T14:23:08;9.75;;;3.45;;
41677;SDS011;27364;49.026;8.712;2023-01-01T14:25:36;8.98;;;3.55;;
41677;SDS011;27364;49.026;8.712;2023-01-01T14:28:04;13.65;;;3.33;;
41677;SDS011;27364;49.026;8.712;2023-01-01T14:30:36;7.88;;;2.90;;
41677;SDS011;27364;49.026;8.712;2023-01-01T14:33:02;8.27;;;2.88;;
41677;SDS011;27364;49.026;8.712;2023-01-01T14:35:27;7.30;;;2.40;;
41677;SDS011;27364;49.026;8.712;2023-01-01T14:37:53;10.45;;;3.08;;
41677;SDS011;27364;49.026;8.712;2023-01-01T14:40:21;7.03;;;2.97;;
41677;SDS011;27364;49.026;8.712;2023-01-01T14:42:55;9.15;;;3.00;;
41677;SDS011;27364;49.026;8.712;2023-01-01T14:45:24;6.28;;;2.67;;
41677;SDS011;27364;49.026;8.712;2023-01-01T14:47:50;6.47;;;2.58;;
41677;SDS011;27364;49.026;8.712;2023-01-01T14:50:21;9.52;;;2.90;;
41677;SDS011;27364;49.026;8.712;2023-01-01T14:52:51;8.60;;;2.90;;
41677;SDS011;27364;49.026;8.712;2023-01-01T14:55:20;6.82;;;3.08;;
41677;SDS011;27364;49.026;8.712;2023-01-01T14:57:46;9.25;;;3.15;;
41677;SDS011;27364;49.026;8.712;2023-01-01T15:00:21;7.03;;;2.78;;
41677;SDS011;27364;49.026;8.712;2023-01-01T15:02:48;6.97;;;2.50;;
41677;SDS011;27364;49.026;8.712;2023-01-01T15:05:22;9.90;;;3.50;;
41677;SDS011;27364;49.026;8.712;2023-01-01T15:07:59;10.80;;;3.67;;
41677;SDS011;27364;49.026;8.712;2023-01-01T15:10:27;7.60;;;3.67;;
41677;SDS011;27364;49.026;8.712;2023-01-01T15:12:55;10.98;;;3.92;;
41677;SDS011;27364;49.026;8.712;2023-01-01T15:20:24;28.52;;;19.65;;
41677;SDS011;27364;49.026;8.712;2023-01-01T15:22:50;31.80;;;20.23;;
41677;SDS011;27364;49.026;8.712;2023-01-01T15:25:17;18.38;;;9.45;;
41677;SDS011;27364;49.026;8.712;2023-01-01T15:27:51;13.65;;;6.00;;
41677;SDS011;27364;49.026;8.712;2023-01-01T15:30:25;11.88;;;6.30;;
41677;SDS011;27364;49.026;8.712;2023-01-01T15:32:54;12.57;;;7.78;;
41677;SDS011;27364;49.026;8.712;2023-01-01T15:35:25;11.90;;;8.00;;
41677;SDS011;27364;49.026;8.712;2023-01-01T15:37:56;12.38;;;7.10;;
41677;SDS011;27364;49.026;8.712;2023-01-01T15:47:50;11.45;;;4.95;;
41677;SDS011;27364;49.026;8.712;2023-01-01T15:50:24;11.57;;;5.32;;
41677;SDS011;27364;49.026;8.712;2023-01-01T15:52:59;11.73;;;5.90;;
41677;SDS011;27364;49.026;8.712;2023-01-01T15:57:54;20.60;;;9.02;;
41677;SDS011;27364;49.026;8.712;2023-01-01T16:00:21;19.00;;;8.65;;
41677;SDS011;27364;49.026;8.712;2023-01-01T16:02:53;15.48;;;6.90;;
41677;SDS011;27364;49.026;8.712;2023-01-01T16:05:22;14.73;;;7.15;;
41677;SDS011;27364;49.026;8.712;2023-01-01T16:07:57;16.88;;;7.22;;
41677;SDS011;27364;49.026;8.712;2023-01-01T16:10:27;12.90;;;7.45;;
41677;SDS011;27364;49.026;8.712;2023-01-01T16:12:53;22.88;;;12.48;;
41677;SDS011;27364;49.026;8.712;2023-01-01T16:15:19;27.67;;;15.50;;
41677;SDS011;27364;49.026;8.712;2023-01-01T16:17:44;14.73;;;9.23;;
41677;SDS011;27364;49.026;8.712;2023-01-01T16:20:14;11.43;;;6.55;;
41677;SDS011;27364;49.026;8.712;2023-01-01T16:22:41;10.27;;;5.50;;
41677;SDS011;27364;49.026;8.712;2023-01-01T16:25:25;13.77;;;6.38;;
41677;SDS011;27364;49.026;8.712;2023-01-01T16:27:50;10.93;;;6.75;;
41677;SDS011;27364;49.026;8.712;2023-01-01T16:30:16;14.00;;;8.75;;
41677;SDS011;27364;49.026;8.712;2023-01-01T16:32:41;14.82;;;8.55;;
41677;SDS011;27364;49.026;8.712;2023-01-01T16:35:10;20.10;;;11.25;;
41677;SDS011;27364;49.026;8.712;2023-01-01T16:37:37;16.63;;;9.02;;
41677;SDS011;27364;49.026;8.712;2023-01-01T16:40:02;12.43;;;8.40;;
41677;SDS011;27364;49.026;8.712;2023-01-01T16:42:28;14.57;;;7.85;;
41677;SDS011;27364;49.026;8.712;2023-01-01T16:44:54;11.50;;;6.60;;
41677;SDS011;27364;49.026;8.712;2023-01-01T16:47:19;12.90;;;6.95;;
41677;SDS011;27364;49.026;8.712;2023-01-01T16:49:46;12.80;;;7.83;;
41677;SDS011;27364;49.026;8.712;2023-01-01T16:52:12;13.18;;;8.00;;
41677;SDS011;27364;49.026;8.712;2023-01-01T16:54:37;14.73;;;7.90;;
41677;SDS011;27364;49.026;8.712;2023-01-01T16:57:04;11.77;;;7.05;;
41677;SDS011;27364;49.026;8.712;2023-01-01T16:59:29;15.23;;;7.10;;